sensor_id;sensor_type;location;lat;lon;timestamp;P1;durP1;ratioP1;P2;durP2;ratioP2
21661;SDS011;10992;48.170;8.596;2022-09-21T00:01:08;4.82;;;3.35;;
21661;SDS011;10992;48.170;8.596;2022-09-21T00:03:37;5.63;;;3.58;;
21661;SDS011;10992;48.170;8.596;2022-09-21T00:06:08;4.68;;;3.83;;
21661;SDS011;10992;48.170;8.596;2022-09-21T00:08:45;4.93;;;3.75;;
21661;SDS011;10992;48.170;8.596;2022-09-21T00:11:14;6.22;;;4.10;;
21661;SDS011;10992;48.170;8.596;2022-09-21T00:13:42;6.55;;;4.38;;
21661;SDS011;10992;48.170;8.596;2022-09-21T00:16:12;5.55;;;4.18;;
21661;SDS011;10992;48.170;8.596;2022-09-21T00:18:41;6.07;;;4.45;;
21661;SDS011;10992;48.170;8.596;2022-09-21T00:21:09;7.00;;;4.40;;
21661;SDS011;10992;48.170;8.596;2022-09-21T00:23:38;8.27;;;4.72;;
21661;SDS011;10992;48.170;8.596;2022-09-21T00:26:12;6.95;;;4.60;;
21661;SDS011;10992;48.170;8.596;2022-09-21T00:28:42;6.63;;;4.80;;
21661;SDS011;10992;48.170;8.596;2022-09-21T00:31:10;5.40;;;4.22;;
21661;SDS011;10992;48.170;8.596;2022-09-21T00:33:40;6.18;;;4.43;;
21661;SDS011;10992;48.170;8.596;2022-09-21T00:36:09;7.07;;;4.45;;
21661;SDS011;10992;48.170;8.596;2022-09-21T00:38:39;6.07;;;4.55;;
21661;SDS011;10992;48.170;8.596;2022-09-21T00:41:06;7.70;;;4.35;;
21661;SDS011;10992;48.170;8.596;2022-09-21T00:43:35;8.27;;;4.82;;
21661;SDS011;10992;48.170;8.596;2022-09-21T00:46:04;8.93;;;4.80;;
21661;SDS011;10992;48.170;8.596;2022-09-21T00:48:39;7.57;;;5.10;;
21661;SDS011;10992;48.170;8.596;2022-09-21T00:51:06;8.55;;;4.75;;
21661;SDS011;10992;48.170;8.596;2022-09-21T00:53:34;7.32;;;5.20;;
21661;SDS011;10992;48.170;8.596;2022-09-21T00:56:03;8.25;;;5.15;;
21661;SDS011;10992;48.170;8.596;2022-09-21T00:58:33;7.63;;;5.00;;
21661;SDS011;10992;48.170;8.596;2022-09-21T01:01:07;9.80;;;5.28;;
21661;SDS011;10992;48.170;8.596;2022-09-21T01:03:36;7.78;;;4.85;;
21661;SDS011;10992;48.170;8.596;2022-09-21T01:06:04;7.85;;;5.35;;
21661;SDS011;10992;48.170;8.596;2022-09-21T01:08:31;8.65;;;5.43;;
21661;SDS011;10992;48.170;8.596;2022-09-21T01:11:10;8.82;;;5.32;;
21661;SDS011;10992;48.170;8.596;2022-09-21T01:25:21;12.35;;;6.32;;
21661;SDS011;10992;48.170;8.596;2022-09-21T01:28:05;14.77;;;6.25;;
21661;SDS011;10992;48.170;8.596;2022-09-21T01:30:56;12.43;;;6.45;;
21661;SDS011;10992;48.170;8.596;2022-09-21T01:33:27;8.35;;;6.07;;
21661;SDS011;10992;48.170;8.596;2022-09-21T01:35:59;7.13;;;5.25;;
21661;SDS011;10992;48.170;8.596;2022-09-21T01:38:32;7.28;;;5.85;;
21661;SDS011;10992;48.170;8.596;2022-09-21T01:41:04;6.82;;;5.90;;
21661;SDS011;10992;48.170;8.596;2022-09-21T01:43:35;8.65;;;5.65;;
21661;SDS011;10992;48.170;8.596;2022-09-21T01:46:06;8.50;;;5.68;;
21661;SDS011;10992;48.170;8.596;2022-09-21T01:48:39;13.52;;;6.65;;
21661;SDS011;10992;48.170;8.596;2022-09-21T01:51:10;11.10;;;6.05;;
21661;SDS011;10992;48.170;8.596;2022-09-21T01:53:44;11.68;;;6.80;;
21661;SDS011;10992;48.170;8.596;2022-09-21T01:56:18;13.25;;;7.85;;
21661;SDS011;10992;48.170;8.596;2022-09-21T02:01:28;9.82;;;6.95;;
21661;SDS011;10992;48.170;8.596;2022-09-21T02:04:00;10.60;;;7.57;;
21661;SDS011;10992;48.170;8.596;2022-09-21T02:06:33;8.40;;;6.63;;
21661;SDS011;10992;48.170;8.596;2022-09-21T02:09:00;10.75;;;6.97;;
21661;SDS011;10992;48.170;8.596;2022-09-21T02:11:27;9.15;;;7.30;;
21661;SDS011;10992;48.170;8.596;2022-09-21T02:13:54;12.55;;;7.65;;
21661;SDS011;10992;48.170;8.596;2022-09-21T02:21:49;10.95;;;6.80;;
21661;SDS011;10992;48.170;8.596;2022-09-21T02:24:34;9.38;;;6.40;;
21661;SDS011;10992;48.170;8.596;2022-09-21T02:27:37;7.80;;;6.60;;
21661;SDS011;10992;48.170;8.596;2022-09-21T02:37:47;13.15;;;8.60;;
21661;SDS011;10992;48.170;8.596;2022-09-21T02:40:29;10.55;;;7.82;;
21661;SDS011;10992;48.170;8.596;2022-09-21T02:43:14;8.23;;;6.97;;
21661;SDS011;10992;48.170;8.596;2022-09-21T02:45:48;9.95;;;6.88;;
21661;SDS011;10992;48.170;8.596;2022-09-21T02:48:21;8.98;;;6.70;;
21661;SDS011;10992;48.170;8.596;2022-09-21T02:50:58;8.73;;;6.38;;
21661;SDS011;10992;48.170;8.596;2022-09-21T02:53:33;13.10;;;7.85;;
21661;SDS011;10992;48.170;8.596;2022-09-21T02:56:02;11.70;;;7.30;;
21661;SDS011;10992;48.170;8.596;2022-09-21T02:58:36;13.23;;;9.00;;
21661;SDS011;10992;48.170;8.596;2022-09-21T03:01:06;18.05;;;9.05;;
21661;SDS011;10992;48.170;8.596;2022-09-21T03:03:36;17.75;;;10.05;;
21661;SDS011;10992;48.170;8.596;2022-09-21T03:06:03;13.15;;;8.68;;
21661;SDS011;10992;48.170;8.596;2022-09-21T03:08:30;14.80;;;9.40;;
21661;SDS011;10992;48.170;8.596;2022-09-21T03:10:57;12.40;;;8.75;;
21661;SDS011;10992;48.170;8.596;2022-09-21T03:13:24;12.30;;;9.30;;
21661;SDS011;10992;48.170;8.596;2022-09-21T03:15:57;14.32;;;9.88;;
21661;SDS011;10992;48.170;8.596;2022-09-21T03:18:25;11.80;;;9.15;;
21661;SDS011;10992;48.170;8.596;2022-09-21T03:20:52;12.38;;;9.10;;
21661;SDS011;10992;48.170;8.596;2022-09-21T03:23:19;13.70;;;9.55;;
21661;SDS011;10992;48.170;8.596;2022-09-21T03:25:46;13.60;;;9.40;;
21661;SDS011;10992;48.170;8.596;2022-09-21T03:28:13;17.38;;;10.52;;
21661;SDS011;10992;48.170;8.596;2022-09-21T03:30:41;17.85;;;11.10;;
21661;SDS011;10992;48.170;8.596;2022-09-21T03:33:08;20.52;;;12.25;;
21661;SDS011;10992;48.170;8.596;2022-09-21T03:35:36;15.07;;;10.38;;
21661;SDS011;10992;48.170;8.596;2022-09-21T03:38:03;14.02;;;9.85;;
21661;SDS011;10992;48.170;8.596;2022-09-21T03:40:30;13.13;;;9.75;;
21661;SDS011;10992;48.170;8.596;2022-09-21T03:42:57;24.42;;;10.88;;
21661;SDS011;10992;48.170;8.596;2022-09-21T03:45:24;14.80;;;11.15;;
21661;SDS011;10992;48.170;8.596;2022-09-21T03:47:58;15.60;;;10.43;;
21661;SDS011;10992;48.170;8.596;2022-09-21T03:50:27;20.70;;;11.85;;
21661;SDS011;10992;48.170;8.596;2022-09-21T03:52:54;14.60;;;10.45;;
21661;SDS011;10992;48.170;8.596;2022-09-21T03:55:22;14.55;;;9.18;;
21661;SDS011;10992;48.170;8.596;2022-09-21T03:57:49;16.08;;;10.48;;
21661;SDS011;10992;48.170;8.596;2022-09-21T04:00:16;13.30;;;10.00;;
21661;SDS011;10992;48.170;8.596;2022-09-21T04:02:43;24.15;;;12.07;;
21661;SDS011;10992;48.170;8.596;2022-09-21T04:05:11;17.20;;;10.45;;
21661;SDS011;10992;48.170;8.596;2022-09-21T04:07:43;17.35;;;11.35;;
21661;SDS011;10992;48.170;8.596;2022-09-21T04:10:14;18.58;;;12.38;;
21661;SDS011;10992;48.170;8.596;2022-09-21T04:12:43;19.45;;;13.07;;
21661;SDS011;10992;48.170;8.596;2022-09-21T04:15:11;26.10;;;14.07;;
21661;SDS011;10992;48.170;8.596;2022-09-21T04:17:40;19.27;;;12.77;;
21661;SDS011;10992;48.170;8.596;2022-09-21T04:20:07;22.08;;;14.55;;
21661;SDS011;10992;48.170;8.596;2022-09-21T04:22:35;18.85;;;12.50;;
21661;SDS011;10992;48.170;8.596;2022-09-21T04:25:08;21.27;;;13.07;;
21661;SDS011;10992;48.170;8.596;2022-09-21T04:27:35;25.02;;;14.07;;
21661;SDS011;10992;48.170;8.596;2022-09-21T04:30:02;18.65;;;12.77;;
21661;SDS011;10992;48.170;8.596;2022-09-21T04:32:30;22.67;;;13.43;;
21661;SDS011;10992;48.170;8.596;2022-09-21T04:34:57;19.23;;;12.52;;
21661;SDS011;10992;48.170;8.596;2022-09-21T04:37:24;18.30;;;12.23;;
21661;SDS011;10992;48.170;8.596;2022-09-21T04:39:50;14.80;;;11.75;;
21661;SDS011;10992;48.170;8.596;2022-09-21T04:42:17;15.55;;;11.68;;
21661;SDS011;10992;48.170;8.596;2022-09-21T04:44:45;22.23;;;12.43;;
21661;SDS011;10992;48.170;8.596;2022-09-21T04:47:11;19.10;;;12.13;;
21661;SDS011;10992;48.170;8.596;2022-09-21T04:49:38;20.17;;;13.18;;
21661;SDS011;10992;48.170;8.596;2022-09-21T04:52:05;20.15;;;13.95;;
21661;SDS011;10992;48.170;8.596;2022-09-21T04:54:32;19.85;;;13.18;;
21661;SDS011;10992;48.170;8.596;2022-09-21T04:56:58;19.88;;;11.82;;
21661;SDS011;10992;48.170;8.596;2022-09-21T04:59:25;24.00;;;13.27;;
21661;SDS011;10992;48.170;8.596;2022-09-21T05:01:52;17.77;;;11.18;;
21661;SDS011;10992;48.170;8.596;2022-09-21T05:04:19;15.07;;;10.77;;
21661;SDS011;10992;48.170;8.596;2022-09-21T05:06:46;15.82;;;11.50;;
21661;SDS011;10992;48.170;8.596;2022-09-21T05:09:12;16.05;;;10.50;;
21661;SDS011;10992;48.170;8.596;2022-09-21T05:11:57;20.13;;;12.20;;
21661;SDS011;10992;48.170;8.596;2022-09-21T05:14:24;16.60;;;10.73;;
21661;SDS011;10992;48.170;8.596;2022-09-21T05:16:51;18.55;;;12.75;;
21661;SDS011;10992;48.170;8.596;2022-09-21T05:19:18;26.02;;;14.90;;
21661;SDS011;10992;48.170;8.596;2022-09-21T05:21:45;26.75;;;15.73;;
21661;SDS011;10992;48.170;8.596;2022-09-21T05:24:11;26.58;;;15.85;;
21661;SDS011;10992;48.170;8.596;2022-09-21T05:26:38;21.45;;;12.50;;
21661;SDS011;10992;48.170;8.596;2022-09-21T05:29:05;20.45;;;12.95;;
21661;SDS011;10992;48.170;8.596;2022-09-21T05:31:40;21.20;;;13.98;;
21661;SDS011;10992;48.170;8.596;2022-09-21T05:34:28;17.17;;;11.70;;
21661;SDS011;10992;48.170;8.596;2022-09-21T05:37:22;21.48;;;14.07;;
21661;SDS011;10992;48.170;8.596;2022-09-21T05:40:03;29.88;;;17.48;;
21661;SDS011;10992;48.170;8.596;2022-09-21T05:42:31;24.40;;;16.48;;
21661;SDS011;10992;48.170;8.596;2022-09-21T05:44:58;25.95;;;15.15;;
21661;SDS011;10992;48.170;8.596;2022-09-21T05:47:38;27.85;;;15.15;;
21661;SDS011;10992;48.170;8.596;2022-09-21T05:55:59;35.85;;;16.05;;
21661;SDS011;10992;48.170;8.596;2022-09-21T06:04:26;24.45;;;16.60;;
21661;SDS011;10992;48.170;8.596;2022-09-21T06:06:53;25.75;;;15.98;;
21661;SDS011;10992;48.170;8.596;2022-09-21T06:09:20;20.05;;;14.30;;
21661;SDS011;10992;48.170;8.596;2022-09-21T06:11:47;18.40;;;11.48;;
21661;SDS011;10992;48.170;8.596;2022-09-21T06:14:14;19.02;;;12.73;;
21661;SDS011;10992;48.170;8.596;2022-09-21T06:16:41;20.30;;;13.05;;
21661;SDS011;10992;48.170;8.596;2022-09-21T06:19:12;18.17;;;12.50;;
21661;SDS011;10992;48.170;8.596;2022-09-21T06:21:39;16.33;;;12.43;;
21661;SDS011;10992;48.170;8.596;2022-09-21T06:24:05;17.50;;;12.93;;
21661;SDS011;10992;48.170;8.596;2022-09-21T06:26:32;12.32;;;9.52;;
21661;SDS011;10992;48.170;8.596;2022-09-21T06:29:00;19.38;;;11.80;;
21661;SDS011;10992;48.170;8.596;2022-09-21T06:31:26;14.48;;;10.90;;
21661;SDS011;10992;48.170;8.596;2022-09-21T06:33:53;16.60;;;11.30;;
21661;SDS011;10992;48.170;8.596;2022-09-21T06:36:20;13.45;;;9.85;;
21661;SDS011;10992;48.170;8.596;2022-09-21T06:38:47;12.85;;;10.30;;
21661;SDS011;10992;48.170;8.596;2022-09-21T06:41:14;16.50;;;12.02;;
21661;SDS011;10992;48.170;8.596;2022-09-21T06:43:46;19.02;;;12.60;;
21661;SDS011;10992;48.170;8.596;2022-09-21T06:46:13;21.83;;;13.25;;
21661;SDS011;10992;48.170;8.596;2022-09-21T06:48:40;15.85;;;11.07;;
21661;SDS011;10992;48.170;8.596;2022-09-21T06:51:07;12.30;;;8.98;;
21661;SDS011;10992;48.170;8.596;2022-09-21T06:53:35;14.68;;;7.57;;
21661;SDS011;10992;48.170;8.596;2022-09-21T06:56:05;10.10;;;7.32;;
21661;SDS011;10992;48.170;8.596;2022-09-21T06:58:34;8.85;;;6.13;;
21661;SDS011;10992;48.170;8.596;2022-09-21T07:01:06;6.18;;;5.22;;
21661;SDS011;10992;48.170;8.596;2022-09-21T07:03:34;6.18;;;5.05;;
21661;SDS011;10992;48.170;8.596;2022-09-21T07:06:01;6.65;;;4.70;;
21661;SDS011;10992;48.170;8.596;2022-09-21T07:08:28;6.57;;;4.78;;
21661;SDS011;10992;48.170;8.596;2022-09-21T07:11:15;5.40;;;4.40;;
21661;SDS011;10992;48.170;8.596;2022-09-21T07:13:42;6.32;;;4.55;;
21661;SDS011;10992;48.170;8.596;2022-09-21T07:16:10;6.55;;;4.45;;
21661;SDS011;10992;48.170;8.596;2022-09-21T07:18:38;6.75;;;4.78;;
21661;SDS011;10992;48.170;8.596;2022-09-21T07:21:10;5.88;;;4.07;;
21661;SDS011;10992;48.170;8.596;2022-09-21T07:23:37;6.50;;;4.22;;
21661;SDS011;10992;48.170;8.596;2022-09-21T07:26:05;5.32;;;4.30;;
21661;SDS011;10992;48.170;8.596;2022-09-21T07:28:34;6.40;;;4.90;;
21661;SDS011;10992;48.170;8.596;2022-09-21T07:31:05;5.68;;;4.45;;
21661;SDS011;10992;48.170;8.596;2022-09-21T07:33:34;3.97;;;3.20;;
21661;SDS011;10992;48.170;8.596;2022-09-21T07:36:02;4.68;;;3.30;;
21661;SDS011;10992;48.170;8.596;2022-09-21T07:38:36;5.18;;;3.90;;
21661;SDS011;10992;48.170;8.596;2022-09-21T07:41:08;4.43;;;3.53;;
21661;SDS011;10992;48.170;8.596;2022-09-21T07:43:36;5.32;;;3.63;;
21661;SDS011;10992;48.170;8.596;2022-09-21T07:46:05;6.32;;;3.47;;
21661;SDS011;10992;48.170;8.596;2022-09-21T07:48:36;6.22;;;3.80;;
21661;SDS011;10992;48.170;8.596;2022-09-21T07:51:04;5.93;;;3.75;;
21661;SDS011;10992;48.170;8.596;2022-09-21T07:53:33;3.58;;;3.20;;
21661;SDS011;10992;48.170;8.596;2022-09-21T07:56:05;4.18;;;3.70;;
21661;SDS011;10992;48.170;8.596;2022-09-21T07:58:42;5.20;;;3.55;;
21661;SDS011;10992;48.170;8.596;2022-09-21T08:01:28;5.40;;;3.30;;
21661;SDS011;10992;48.170;8.596;2022-09-21T08:03:56;5.07;;;3.90;;
21661;SDS011;10992;48.170;8.596;2022-09-21T08:06:25;8.18;;;4.68;;
21661;SDS011;10992;48.170;8.596;2022-09-21T08:08:53;5.65;;;3.38;;
21661;SDS011;10992;48.170;8.596;2022-09-21T08:11:23;4.43;;;3.30;;
21661;SDS011;10992;48.170;8.596;2022-09-21T08:13:51;4.28;;;2.70;;
21661;SDS011;10992;48.170;8.596;2022-09-21T08:16:20;4.65;;;3.00;;
21661;SDS011;10992;48.170;8.596;2022-09-21T08:18:47;3.90;;;2.85;;
21661;SDS011;10992;48.170;8.596;2022-09-21T08:21:13;4.65;;;3.33;;
21661;SDS011;10992;48.170;8.596;2022-09-21T08:23:40;4.53;;;2.45;;
21661;SDS011;10992;48.170;8.596;2022-09-21T08:26:11;3.38;;;2.50;;
21661;SDS011;10992;48.170;8.596;2022-09-21T08:28:44;4.45;;;2.78;;
21661;SDS011;10992;48.170;8.596;2022-09-21T08:31:15;3.75;;;2.83;;
21661;SDS011;10992;48.170;8.596;2022-09-21T08:33:45;4.00;;;2.53;;
21661;SDS011;10992;48.170;8.596;2022-09-21T08:36:13;4.18;;;2.30;;
21661;SDS011;10992;48.170;8.596;2022-09-21T08:38:39;4.80;;;2.63;;
21661;SDS011;10992;48.170;8.596;2022-09-21T08:41:13;5.13;;;2.33;;
21661;SDS011;10992;48.170;8.596;2022-09-21T08:43:47;4.50;;;2.40;;
21661;SDS011;10992;48.170;8.596;2022-09-21T08:46:24;4.80;;;2.90;;
21661;SDS011;10992;48.170;8.596;2022-09-21T08:49:11;3.47;;;2.47;;
21661;SDS011;10992;48.170;8.596;2022-09-21T08:51:48;3.40;;;2.50;;
21661;SDS011;10992;48.170;8.596;2022-09-21T08:54:28;3.88;;;2.30;;
21661;SDS011;10992;48.170;8.596;2022-09-21T08:57:12;6.38;;;2.58;;
21661;SDS011;10992;48.170;8.596;2022-09-21T08:59:42;4.65;;;2.25;;
21661;SDS011;10992;48.170;8.596;2022-09-21T09:07:56;4.43;;;2.42;;
21661;SDS011;10992;48.170;8.596;2022-09-21T09:10:58;3.42;;;2.22;;
21661;SDS011;10992;48.170;8.596;2022-09-21T09:16:55;3.10;;;2.10;;
21661;SDS011;10992;48.170;8.596;2022-09-21T09:21:47;3.03;;;1.70;;
21661;SDS011;10992;48.170;8.596;2022-09-21T09:24:16;5.10;;;2.03;;
21661;SDS011;10992;48.170;8.596;2022-09-21T09:27:03;3.17;;;1.65;;
21661;SDS011;10992;48.170;8.596;2022-09-21T09:29:42;3.90;;;2.00;;
21661;SDS011;10992;48.170;8.596;2022-09-21T09:32:40;3.60;;;2.38;;
21661;SDS011;10992;48.170;8.596;2022-09-21T09:36:01;2.47;;;1.65;;
21661;SDS011;10992;48.170;8.596;2022-09-21T09:38:18;3.35;;;1.90;;
21661;SDS011;10992;48.170;8.596;2022-09-21T09:46:45;3.25;;;1.48;;
21661;SDS011;10992;48.170;8.596;2022-09-21T09:49:30;3.50;;;1.77;;
21661;SDS011;10992;48.170;8.596;2022-09-21T09:51:59;2.53;;;1.00;;
21661;SDS011;10992;48.170;8.596;2022-09-21T09:54:27;3.20;;;0.90;;
21661;SDS011;10992;48.170;8.596;2022-09-21T09:57:00;2.80;;;1.10;;
21661;SDS011;10992;48.170;8.596;2022-09-21T10:07:35;2.13;;;0.85;;
21661;SDS011;10992;48.170;8.596;2022-09-21T10:10:49;2.03;;;0.98;;
21661;SDS011;10992;48.170;8.596;2022-09-21T10:12:51;3.20;;;1.00;;
21661;SDS011;10992;48.170;8.596;2022-09-21T10:15:18;2.30;;;0.90;;
21661;SDS011;10992;48.170;8.596;2022-09-21T10:17:55;1.52;;;1.00;;
21661;SDS011;10992;48.170;8.596;2022-09-21T10:20:36;3.78;;;1.08;;
21661;SDS011;10992;48.170;8.596;2022-09-21T10:23:03;2.03;;;1.20;;
21661;SDS011;10992;48.170;8.596;2022-09-21T10:25:30;3.20;;;1.50;;
21661;SDS011;10992;48.170;8.596;2022-09-21T10:28:02;1.92;;;1.00;;
21661;SDS011;10992;48.170;8.596;2022-09-21T10:32:59;2.25;;;1.20;;
21661;SDS011;10992;48.170;8.596;2022-09-21T10:35:26;3.35;;;1.30;;
21661;SDS011;10992;48.170;8.596;2022-09-21T10:38:10;4.20;;;1.33;;
21661;SDS011;10992;48.170;8.596;2022-09-21T10:40:47;3.35;;;1.30;;
21661;SDS011;10992;48.170;8.596;2022-09-21T10:43:27;2.05;;;1.10;;
21661;SDS011;10992;48.170;8.596;2022-09-21T10:46:05;1.92;;;0.93;;
21661;SDS011;10992;48.170;8.596;2022-09-21T10:48:31;1.85;;;0.82;;
21661;SDS011;10992;48.170;8.596;2022-09-21T10:50:58;3.45;;;0.90;;
21661;SDS011;10992;48.170;8.596;2022-09-21T10:53:35;2.60;;;0.93;;
21661;SDS011;10992;48.170;8.596;2022-09-21T10:56:03;1.98;;;0.82;;
21661;SDS011;10992;48.170;8.596;2022-09-21T11:01:36;1.30;;;0.70;;
21661;SDS011;10992;48.170;8.596;2022-09-21T11:07:14;1.88;;;0.80;;
21661;SDS011;10992;48.170;8.596;2022-09-21T11:15:00;1.70;;;0.77;;
21661;SDS011;10992;48.170;8.596;2022-09-21T11:26:31;1.52;;;0.65;;
21661;SDS011;10992;48.170;8.596;2022-09-21T11:29:18;6.80;;;1.02;;
21661;SDS011;10992;48.170;8.596;2022-09-21T11:34:32;1.27;;;0.65;;
21661;SDS011;10992;48.170;8.596;2022-09-21T11:40:35;2.70;;;0.55;;
21661;SDS011;10992;48.170;8.596;2022-09-21T11:54:41;2.58;;;0.60;;
21661;SDS011;10992;48.170;8.596;2022-09-21T11:57:34;3.88;;;0.98;;
21661;SDS011;10992;48.170;8.596;2022-09-21T12:00:20;2.53;;;0.50;;
21661;SDS011;10992;48.170;8.596;2022-09-21T12:02:53;2.13;;;0.57;;
21661;SDS011;10992;48.170;8.596;2022-09-21T12:11:22;1.92;;;0.65;;
21661;SDS011;10992;48.170;8.596;2022-09-21T12:13:53;1.05;;;0.40;;
21661;SDS011;10992;48.170;8.596;2022-09-21T12:24:43;1.38;;;0.50;;
21661;SDS011;10992;48.170;8.596;2022-09-21T12:27:28;1.00;;;0.50;;
21661;SDS011;10992;48.170;8.596;2022-09-21T12:32:48;2.80;;;0.65;;
21661;SDS011;10992;48.170;8.596;2022-09-21T12:35:34;2.47;;;0.52;;
21661;SDS011;10992;48.170;8.596;2022-09-21T12:38:09;2.78;;;0.60;;
21661;SDS011;10992;48.170;8.596;2022-09-21T12:43:38;1.65;;;0.68;;
21661;SDS011;10992;48.170;8.596;2022-09-21T12:48:45;3.00;;;1.02;;
21661;SDS011;10992;48.170;8.596;2022-09-21T12:54:15;1.73;;;0.38;;
21661;SDS011;10992;48.170;8.596;2022-09-21T12:56:55;1.02;;;0.38;;
21661;SDS011;10992;48.170;8.596;2022-09-21T13:05:28;1.90;;;0.65;;
21661;SDS011;10992;48.170;8.596;2022-09-21T13:10:44;2.15;;;0.63;;
21661;SDS011;10992;48.170;8.596;2022-09-21T13:13:24;0.73;;;0.40;;
21661;SDS011;10992;48.170;8.596;2022-09-21T13:15:58;1.38;;;0.40;;
21661;SDS011;10992;48.170;8.596;2022-09-21T13:18:36;0.73;;;0.43;;
21661;SDS011;10992;48.170;8.596;2022-09-21T13:21:15;2.63;;;0.73;;
21661;SDS011;10992;48.170;8.596;2022-09-21T13:23:49;1.10;;;0.43;;
21661;SDS011;10992;48.170;8.596;2022-09-21T13:26:41;1.33;;;0.45;;
21661;SDS011;10992;48.170;8.596;2022-09-21T13:31:59;0.77;;;0.40;;
21661;SDS011;10992;48.170;8.596;2022-09-21T13:34:31;1.77;;;0.60;;
21661;SDS011;10992;48.170;8.596;2022-09-21T13:44:58;3.47;;;0.70;;
21661;SDS011;10992;48.170;8.596;2022-09-21T13:47:32;1.88;;;0.70;;
21661;SDS011;10992;48.170;8.596;2022-09-21T13:50:02;1.48;;;0.68;;
21661;SDS011;10992;48.170;8.596;2022-09-21T13:52:57;1.27;;;0.40;;
21661;SDS011;10992;48.170;8.596;2022-09-21T13:57:57;0.80;;;0.50;;
21661;SDS011;10992;48.170;8.596;2022-09-21T14:00:34;1.90;;;0.60;;
21661;SDS011;10992;48.170;8.596;2022-09-21T14:03:25;1.98;;;0.68;;
21661;SDS011;10992;48.170;8.596;2022-09-21T14:06:05;2.25;;;1.20;;
21661;SDS011;10992;48.170;8.596;2022-09-21T14:08:46;1.33;;;0.40;;
21661;SDS011;10992;48.170;8.596;2022-09-21T14:24:46;1.60;;;0.40;;
21661;SDS011;10992;48.170;8.596;2022-09-21T14:27:18;0.95;;;0.40;;
21661;SDS011;10992;48.170;8.596;2022-09-21T14:29:57;4.07;;;0.60;;
21661;SDS011;10992;48.170;8.596;2022-09-21T14:32:34;0.47;;;0.30;;
21661;SDS011;10992;48.170;8.596;2022-09-21T14:35:10;1.73;;;0.55;;
21661;SDS011;10992;48.170;8.596;2022-09-21T14:37:45;1.08;;;0.30;;
21661;SDS011;10992;48.170;8.596;2022-09-21T14:40:22;1.15;;;0.45;;
21661;SDS011;10992;48.170;8.596;2022-09-21T14:42:51;0.55;;;0.32;;
21661;SDS011;10992;48.170;8.596;2022-09-21T14:45:23;0.32;;;0.30;;
21661;SDS011;10992;48.170;8.596;2022-09-21T14:50:44;1.80;;;0.65;;
21661;SDS011;10992;48.170;8.596;2022-09-21T14:54:13;1.60;;;0.45;;
21661;SDS011;10992;48.170;8.596;2022-09-21T14:56:41;3.08;;;0.50;;
21661;SDS011;10992;48.170;8.596;2022-09-21T15:02:18;1.45;;;0.50;;
21661;SDS011;10992;48.170;8.596;2022-09-21T15:04:53;1.10;;;0.32;;
21661;SDS011;10992;48.170;8.596;2022-09-21T15:07:32;3.38;;;0.52;;
21661;SDS011;10992;48.170;8.596;2022-09-21T15:10:27;0.80;;;0.40;;
21661;SDS011;10992;48.170;8.596;2022-09-21T15:13:55;0.98;;;0.38;;
21661;SDS011;10992;48.170;8.596;2022-09-21T15:16:43;0.70;;;0.32;;
21661;SDS011;10992;48.170;8.596;2022-09-21T15:21:42;2.20;;;0.68;;
21661;SDS011;10992;48.170;8.596;2022-09-21T15:24:22;0.75;;;0.52;;
21661;SDS011;10992;48.170;8.596;2022-09-21T15:29:35;0.95;;;0.60;;
21661;SDS011;10992;48.170;8.596;2022-09-21T15:32:02;0.77;;;0.28;;
21661;SDS011;10992;48.170;8.596;2022-09-21T15:34:31;0.73;;;0.45;;
21661;SDS011;10992;48.170;8.596;2022-09-21T15:37:05;1.23;;;0.50;;
21661;SDS011;10992;48.170;8.596;2022-09-21T15:39:45;1.00;;;0.50;;
21661;SDS011;10992;48.170;8.596;2022-09-21T15:42:26;1.27;;;0.38;;
21661;SDS011;10992;48.170;8.596;2022-09-21T15:45:14;0.68;;;0.45;;
21661;SDS011;10992;48.170;8.596;2022-09-21T15:47:43;0.70;;;0.40;;
21661;SDS011;10992;48.170;8.596;2022-09-21T15:50:11;0.90;;;0.40;;
21661;SDS011;10992;48.170;8.596;2022-09-21T15:52:50;0.90;;;0.40;;
21661;SDS011;10992;48.170;8.596;2022-09-21T15:55:20;0.70;;;0.50;;
21661;SDS011;10992;48.170;8.596;2022-09-21T15:57:49;1.00;;;0.45;;
21661;SDS011;10992;48.170;8.596;2022-09-21T16:00:19;0.60;;;0.40;;
21661;SDS011;10992;48.170;8.596;2022-09-21T16:03:01;0.65;;;0.50;;
21661;SDS011;10992;48.170;8.596;2022-09-21T16:05:48;0.43;;;0.40;;
21661;SDS011;10992;48.170;8.596;2022-09-21T16:14:23;1.40;;;0.52;;
21661;SDS011;10992;48.170;8.596;2022-09-21T16:20:02;0.80;;;0.50;;
21661;SDS011;10992;48.170;8.596;2022-09-21T16:22:50;1.40;;;0.50;;
21661;SDS011;10992;48.170;8.596;2022-09-21T16:27:57;1.55;;;0.50;;
21661;SDS011;10992;48.170;8.596;2022-09-21T16:30:59;0.90;;;0.52;;
21661;SDS011;10992;48.170;8.596;2022-09-21T16:36:04;0.63;;;0.40;;
21661;SDS011;10992;48.170;8.596;2022-09-21T16:38:51;0.88;;;0.40;;
21661;SDS011;10992;48.170;8.596;2022-09-21T16:41:22;0.50;;;0.45;;
21661;SDS011;10992;48.170;8.596;2022-09-21T16:43:54;0.82;;;0.40;;
21661;SDS011;10992;48.170;8.596;2022-09-21T16:46:22;2.90;;;0.60;;
21661;SDS011;10992;48.170;8.596;2022-09-21T16:48:52;2.05;;;0.80;;
21661;SDS011;10992;48.170;8.596;2022-09-21T16:51:20;1.00;;;0.60;;
21661;SDS011;10992;48.170;8.596;2022-09-21T16:53:50;1.88;;;0.60;;
21661;SDS011;10992;48.170;8.596;2022-09-21T16:56:18;1.77;;;0.60;;
21661;SDS011;10992;48.170;8.596;2022-09-21T16:58:45;2.03;;;0.70;;
21661;SDS011;10992;48.170;8.596;2022-09-21T17:01:17;2.08;;;1.00;;
21661;SDS011;10992;48.170;8.596;2022-09-21T17:03:46;15.23;;;10.27;;
21661;SDS011;10992;48.170;8.596;2022-09-21T17:06:17;3.88;;;2.38;;
21661;SDS011;10992;48.170;8.596;2022-09-21T17:08:47;1.58;;;0.90;;
21661;SDS011;10992;48.170;8.596;2022-09-21T17:11:14;2.58;;;1.60;;
21661;SDS011;10992;48.170;8.596;2022-09-21T17:13:46;3.67;;;3.28;;
21661;SDS011;10992;48.170;8.596;2022-09-21T17:16:13;2.88;;;2.58;;
21661;SDS011;10992;48.170;8.596;2022-09-21T17:18:46;2.60;;;1.30;;
21661;SDS011;10992;48.170;8.596;2022-09-21T17:21:14;2.30;;;1.20;;
21661;SDS011;10992;48.170;8.596;2022-09-21T17:23:41;2.08;;;1.25;;
21661;SDS011;10992;48.170;8.596;2022-09-21T17:26:12;2.63;;;1.30;;
21661;SDS011;10992;48.170;8.596;2022-09-21T17:28:44;3.35;;;1.42;;
21661;SDS011;10992;48.170;8.596;2022-09-21T17:31:11;3.30;;;1.20;;
21661;SDS011;10992;48.170;8.596;2022-09-21T17:33:40;1.45;;;1.10;;
21661;SDS011;10992;48.170;8.596;2022-09-21T17:36:10;1.90;;;1.50;;
21661;SDS011;10992;48.170;8.596;2022-09-21T17:38:38;2.83;;;1.80;;
21661;SDS011;10992;48.170;8.596;2022-09-21T17:41:15;3.60;;;3.30;;
21661;SDS011;10992;48.170;8.596;2022-09-21T17:49:10;2.40;;;2.05;;
21661;SDS011;10992;48.170;8.596;2022-09-21T17:51:37;3.58;;;2.70;;
21661;SDS011;10992;48.170;8.596;2022-09-21T17:54:22;3.58;;;2.55;;
21661;SDS011;10992;48.170;8.596;2022-09-21T17:56:50;3.13;;;2.38;;
21661;SDS011;10992;48.170;8.596;2022-09-21T17:59:30;4.40;;;2.35;;
21661;SDS011;10992;48.170;8.596;2022-09-21T18:01:58;4.05;;;2.33;;
21661;SDS011;10992;48.170;8.596;2022-09-21T18:04:37;3.00;;;2.33;;
21661;SDS011;10992;48.170;8.596;2022-09-21T18:07:04;3.63;;;2.88;;
21661;SDS011;10992;48.170;8.596;2022-09-21T18:09:31;2.45;;;2.08;;
21661;SDS011;10992;48.170;8.596;2022-09-21T18:12:17;2.90;;;2.58;;
21661;SDS011;10992;48.170;8.596;2022-09-21T18:15:01;3.40;;;2.88;;
21661;SDS011;10992;48.170;8.596;2022-09-21T18:17:45;4.88;;;3.30;;
21661;SDS011;10992;48.170;8.596;2022-09-21T18:25:44;9.77;;;5.93;;
21661;SDS011;10992;48.170;8.596;2022-09-21T18:28:20;14.35;;;7.22;;
21661;SDS011;10992;48.170;8.596;2022-09-21T18:36:51;5.32;;;3.33;;
21661;SDS011;10992;48.170;8.596;2022-09-21T18:39:44;5.10;;;3.40;;
21661;SDS011;10992;48.170;8.596;2022-09-21T18:45:33;4.60;;;2.70;;